Time;durP1;ratioP1;P1;durP2;ratioP2;P2;SDS_P1;SDS_P2;PMS_P1;PMS_P2;Temp;Humidity;BMP_temperature;BMP_pressure;BME280_temperature;BME280_humidity;BME280_pressure;Samples;Min_cycle;Max_cycle;Signal;HPM_P1;HPM_P2
2023/07/21 00:01:56;;;;;;;7.22;3.60;;;;;;;;;;5059136;28;20697;-76
2023/07/21 00:04:24;;;;;;;6.88;3.47;;;;;;;;;;5052516;28;20646;-80
2023/07/21 00:06:51;;;;;;;6.03;3.13;;;;;;;;;;5059261;28;20142;-84
2023/07/21 00:09:17;;;;;;;6.28;3.10;;;;;;;;;;5057484;28;20139;-85
2023/07/21 00:11:43;;;;;;;6.13;3.28;;;;;;;;;;5057587;28;21116;-85
2023/07/21 00:14:10;;;;;;;4.55;3.10;;;;;;;;;;5061299;28;20028;-86
2023/07/21 00:16:37;;;;;;;6.15;3.22;;;;;;;;;;5060627;28;20135;-83
2023/07/21 00:19:04;;;;;;;4.70;3.00;;;;;;;;;;5060688;28;20054;-84
2023/07/21 00:21:30;;;;;;;5.45;3.53;;;;;;;;;;5062025;28;20044;-87
2023/07/21 00:23:57;;;;;;;4.72;2.95;;;;;;;;;;5056119;28;20480;-85
2023/07/21 00:26:24;;;;;;;5.43;3.42;;;;;;;;;;5058049;28;20064;-84
2023/07/21 00:28:50;;;;;;;6.45;3.35;;;;;;;;;;5056002;28;20044;-83
2023/07/21 00:31:16;;;;;;;6.22;3.17;;;;;;;;;;5060719;28;20041;-87
2023/07/21 00:33:42;;;;;;;6.60;3.65;;;;;;;;;;5056821;28;20056;-82
2023/07/21 00:36:08;;;;;;;8.27;3.90;;;;;;;;;;5054283;28;20040;-83
2023/07/21 00:38:34;;;;;;;6.80;3.80;;;;;;;;;;5055323;28;20048;-85
2023/07/21 00:41:00;;;;;;;7.50;3.70;;;;;;;;;;5055946;28;20057;-89
2023/07/21 00:43:26;;;;;;;9.73;3.50;;;;;;;;;;5052561;28;20152;-82
2023/07/21 00:45:53;;;;;;;5.65;3.30;;;;;;;;;;5056403;28;20028;-87
2023/07/21 00:48:19;;;;;;;7.45;3.20;;;;;;;;;;5063520;28;20049;-83
2023/07/21 00:50:47;;;;;;;7.07;3.40;;;;;;;;;;5056634;28;20118;-81
2023/07/21 00:53:13;;;;;;;6.00;3.65;;;;;;;;;;5055831;28;20052;-83
2023/07/21 00:55:41;;;;;;;8.00;3.63;;;;;;;;;;5060044;28;20068;-80
2023/07/21 00:58:08;;;;;;;4.82;3.40;;;;;;;;;;5055501;28;20045;-87
2023/07/21 01:00:34;;;;;;;8.43;3.80;;;;;;;;;;5059303;28;20667;-88
2023/07/21 01:03:01;;;;;;;4.90;3.63;;;;;;;;;;5058894;28;20048;-83
2023/07/21 01:05:27;;;;;;;4.22;3.10;;;;;;;;;;5058893;28;20072;-84
2023/07/21 01:07:53;;;;;;;4.95;3.55;;;;;;;;;;5050049;28;20202;-84
2023/07/21 01:10:20;;;;;;;5.57;3.55;;;;;;;;;;5058527;28;20076;-80
2023/07/21 01:12:46;;;;;;;6.00;3.60;;;;;;;;;;5059746;28;20040;-88
2023/07/21 01:15:12;;;;;;;5.82;3.47;;;;;;;;;;5059460;28;20079;-82
2023/07/21 01:17:39;;;;;;;5.78;3.33;;;;;;;;;;5057988;28;20507;-85
2023/07/21 01:20:06;;;;;;;5.28;3.38;;;;;;;;;;5057179;28;20109;-79
2023/07/21 01:22:51;;;;;;;5.05;3.25;;;;;;;;;;5054163;28;20045;-79
2023/07/21 01:25:17;;;;;;;5.00;3.17;;;;;;;;;;5055079;28;20052;-81
2023/07/21 01:27:44;;;;;;;5.63;2.88;;;;;;;;;;5062261;28;20051;-75
2023/07/21 01:30:11;;;;;;;8.02;3.20;;;;;;;;;;5057999;28;20507;-79
2023/07/21 01:32:38;;;;;;;6.13;3.13;;;;;;;;;;5055784;28;20085;-81
2023/07/21 01:35:07;;;;;;;6.53;3.10;;;;;;;;;;5056601;28;20041;-86
2023/07/21 01:37:34;;;;;;;8.05;2.90;;;;;;;;;;5057798;28;20484;-83
2023/07/21 01:40:00;;;;;;;6.18;3.03;;;;;;;;;;5055730;28;20039;-83
2023/07/21 01:42:30;;;;;;;4.25;2.50;;;;;;;;;;5051272;28;20067;-77
2023/07/21 01:44:56;;;;;;;5.50;2.72;;;;;;;;;;5054349;28;20060;-77
2023/07/21 01:47:24;;;;;;;5.60;2.88;;;;;;;;;;5058161;28;20052;-85
2023/07/21 01:49:51;;;;;;;5.00;2.60;;;;;;;;;;5059272;28;20080;-83
2023/07/21 01:52:18;;;;;;;5.07;3.00;;;;;;;;;;5058103;28;20330;-84
2023/07/21 01:54:49;;;;;;;5.57;2.80;;;;;;;;;;5054017;28;20048;-89
2023/07/21 01:57:18;;;;;;;5.93;3.03;;;;;;;;;;5053776;28;20075;-80
2023/07/21 01:59:45;;;;;;;8.15;3.30;;;;;;;;;;5054490;28;20155;-88
2023/07/21 02:02:12;;;;;;;5.85;3.58;;;;;;;;;;5057968;28;20033;-82
2023/07/21 02:04:38;;;;;;;7.07;3.00;;;;;;;;;;5057648;28;20751;-80
2023/07/21 02:07:05;;;;;;;4.97;2.78;;;;;;;;;;5041633;28;20436;-76
2023/07/21 02:09:31;;;;;;;5.70;2.70;;;;;;;;;;5040260;28;20043;-88
2023/07/21 02:11:58;;;;;;;7.25;3.42;;;;;;;;;;5036744;28;20539;-88
2023/07/21 02:14:24;;;;;;;7.13;2.90;;;;;;;;;;5054989;28;20033;-84
2023/07/21 02:16:50;;;;;;;6.30;2.95;;;;;;;;;;5056770;28;20047;-87
2023/07/21 02:19:17;;;;;;;6.80;3.20;;;;;;;;;;5058289;28;20556;-88
2023/07/21 02:21:43;;;;;;;6.47;3.20;;;;;;;;;;5058821;28;20041;-83
2023/07/21 02:24:09;;;;;;;5.75;3.10;;;;;;;;;;5059174;28;20059;-76
2023/07/21 02:26:35;;;;;;;5.40;3.25;;;;;;;;;;5056456;28;20500;-88
2023/07/21 02:29:01;;;;;;;5.75;3.40;;;;;;;;;;5057226;28;20052;-83
2023/07/21 02:31:27;;;;;;;4.97;3.22;;;;;;;;;;5054357;28;20055;-84
2023/07/21 02:33:53;;;;;;;5.65;3.28;;;;;;;;;;5054844;28;20032;-87
2023/07/21 02:36:19;;;;;;;6.85;3.70;;;;;;;;;;5047815;28;20045;-86
2023/07/21 02:38:45;;;;;;;6.93;4.07;;;;;;;;;;5058033;28;20155;-86
2023/07/21 02:41:11;;;;;;;6.53;4.03;;;;;;;;;;5059921;28;20032;-85
2023/07/21 02:43:38;;;;;;;5.70;3.97;;;;;;;;;;5056503;28;20159;-86
2023/07/21 02:46:04;;;;;;;5.30;4.15;;;;;;;;;;5058959;28;20490;-86
2023/07/21 02:48:30;;;;;;;7.93;4.70;;;;;;;;;;5058009;28;20055;-88
2023/07/21 02:50:57;;;;;;;6.47;4.47;;;;;;;;;;5056969;28;20158;-80
2023/07/21 02:53:23;;;;;;;5.72;4.15;;;;;;;;;;5041105;28;20571;-77
2023/07/21 02:55:49;;;;;;;6.20;3.97;;;;;;;;;;5058103;28;20140;-88
2023/07/21 02:58:16;;;;;;;9.18;4.55;;;;;;;;;;5057746;28;20044;-80
2023/07/21 03:00:42;;;;;;;7.40;4.63;;;;;;;;;;5054949;28;20059;-86
2023/07/21 03:03:09;;;;;;;6.30;4.60;;;;;;;;;;5062755;28;20072;-86
2023/07/21 03:05:35;;;;;;;9.05;4.93;;;;;;;;;;5040841;28;20106;-79
2023/07/21 03:08:03;;;;;;;6.45;5.18;;;;;;;;;;5061480;28;20040;-88
2023/07/21 03:10:29;;;;;;;5.93;4.68;;;;;;;;;;5043590;28;20060;-79
2023/07/21 03:12:55;;;;;;;8.02;4.82;;;;;;;;;;5058254;28;20392;-83
2023/07/21 03:15:21;;;;;;;8.30;4.97;;;;;;;;;;5058634;28;20051;-81
2023/07/21 03:17:47;;;;;;;8.98;5.55;;;;;;;;;;5052528;28;20595;-88
2023/07/21 03:20:15;;;;;;;9.75;5.70;;;;;;;;;;5056790;28;20076;-89
2023/07/21 03:22:44;;;;;;;11.02;6.00;;;;;;;;;;5058640;28;20088;-77
2023/07/21 03:25:12;;;;;;;8.10;5.30;;;;;;;;;;5061902;28;20064;-77
2023/07/21 03:27:39;;;;;;;6.63;5.03;;;;;;;;;;5061861;28;20127;-81
2023/07/21 03:30:09;;;;;;;8.63;5.40;;;;;;;;;;5062246;28;20047;-88
2023/07/21 03:32:35;;;;;;;9.02;5.50;;;;;;;;;;5056963;28;20554;-83
2023/07/21 03:35:04;;;;;;;6.43;5.07;;;;;;;;;;5043634;28;20048;-84
2023/07/21 03:37:30;;;;;;;;;;;;;;;;;;5061440;28;20151;-77
2023/07/21 03:39:57;;;;;;;7.82;4.90;;;;;;;;;;5060986;28;19924;-86
2023/07/21 03:42:23;;;;;;;6.35;5.10;;;;;;;;;;5059992;28;20056;-88
2023/07/21 03:44:50;;;;;;;6.53;5.05;;;;;;;;;;5048776;28;20040;-89
2023/07/21 03:47:19;;;;;;;12.00;5.68;;;;;;;;;;5060874;28;20029;-87
2023/07/21 03:49:46;;;;;;;7.85;5.10;;;;;;;;;;5040822;28;20090;-84
2023/07/21 03:52:12;;;;;;;7.72;5.38;;;;;;;;;;5058916;28;20440;-90
2023/07/21 03:54:38;;;;;;;7.40;4.70;;;;;;;;;;5051482;28;20048;-88
2023/07/21 03:57:04;;;;;;;9.20;5.80;;;;;;;;;;5043492;28;20044;-83
2023/07/21 03:59:31;;;;;;;8.75;5.82;;;;;;;;;;5060682;28;20409;-84
2023/07/21 04:01:57;;;;;;;9.85;6.05;;;;;;;;;;5059939;28;20055;-89
2023/07/21 04:04:23;;;;;;;9.73;6.47;;;;;;;;;;5057462;28;20036;-77
2023/07/21 04:06:49;;;;;;;11.18;6.57;;;;;;;;;;5060484;28;20040;-86
2023/07/21 04:09:15;;;;;;;9.52;6.28;;;;;;;;;;5056409;28;20163;-85
2023/07/21 04:11:41;;;;;;;10.13;6.10;;;;;;;;;;5055424;28;20040;-88
2023/07/21 04:14:07;;;;;;;7.45;6.10;;;;;;;;;;5060491;28;20446;-88
2023/07/21 04:16:34;;;;;;;10.93;6.68;;;;;;;;;;5057822;28;20071;-85
2023/07/21 04:19:00;;;;;;;9.70;5.85;;;;;;;;;;5057054;28;20503;-87
2023/07/21 04:21:26;;;;;;;9.63;6.00;;;;;;;;;;5057771;28;20420;-84
2023/07/21 04:23:52;;;;;;;12.43;6.47;;;;;;;;;;5041349;28;20583;-79
2023/07/21 04:26:19;;;;;;;10.65;6.85;;;;;;;;;;5055623;28;20052;-86
2023/07/21 04:28:45;;;;;;;12.52;7.10;;;;;;;;;;5055281;28;20040;-85
2023/07/21 04:31:11;;;;;;;10.02;6.47;;;;;;;;;;5051574;28;20044;-86
2023/07/21 04:33:38;;;;;;;11.60;6.28;;;;;;;;;;5057452;28;20044;-84
2023/07/21 04:36:04;;;;;;;8.43;5.72;;;;;;;;;;5057634;28;20053;-82
2023/07/21 04:38:30;;;;;;;11.05;5.55;;;;;;;;;;5065933;28;20041;-89
2023/07/21 04:40:56;;;;;;;8.27;5.22;;;;;;;;;;5057931;28;20084;-89
2023/07/21 04:43:22;;;;;;;7.25;5.57;;;;;;;;;;5059934;28;20118;-81
2023/07/21 04:45:49;;;;;;;13.65;5.95;;;;;;;;;;5058634;28;20060;-82
2023/07/21 04:48:15;;;;;;;8.38;5.85;;;;;;;;;;5056342;28;20811;-82
2023/07/21 04:50:42;;;;;;;7.70;5.07;;;;;;;;;;5059881;28;20044;-83
2023/07/21 04:53:11;;;;;;;6.43;4.68;;;;;;;;;;5053050;28;20404;-85
2023/07/21 04:55:38;;;;;;;8.38;4.93;;;;;;;;;;5059117;28;21162;-90
2023/07/21 04:58:08;;;;;;;9.68;4.90;;;;;;;;;;5061045;28;20051;-81
2023/07/21 05:00:34;;;;;;;7.93;4.68;;;;;;;;;;5057699;28;20656;-84
2023/07/21 05:03:00;;;;;;;6.50;4.22;;;;;;;;;;5056299;28;20087;-90
2023/07/21 05:05:27;;;;;;;8.30;4.50;;;;;;;;;;5056962;28;20224;-80
2023/07/21 05:07:53;;;;;;;7.47;4.82;;;;;;;;;;5060690;28;21046;-80
2023/07/21 05:10:19;;;;;;;8.93;4.70;;;;;;;;;;5057713;28;20393;-79
2023/07/21 05:12:45;;;;;;;6.93;4.20;;;;;;;;;;5058775;28;20190;-81
2023/07/21 05:15:13;;;;;;;8.52;4.45;;;;;;;;;;5059164;28;20037;-77
2023/07/21 05:17:39;;;;;;;8.55;4.22;;;;;;;;;;5053788;28;20048;-85
2023/07/21 05:20:07;;;;;;;7.78;4.53;;;;;;;;;;5059017;28;20402;-89
2023/07/21 05:22:33;;;;;;;8.13;4.80;;;;;;;;;;5041014;28;20059;-81
2023/07/21 05:24:59;;;;;;;8.00;4.13;;;;;;;;;;5059660;28;20060;-82
2023/07/21 05:27:25;;;;;;;8.35;4.18;;;;;;;;;;5059008;28;20068;-84
2023/07/21 05:29:51;;;;;;;8.32;4.32;;;;;;;;;;5059114;28;20123;-86
2023/07/21 05:32:17;;;;;;;7.72;4.05;;;;;;;;;;5055851;28;20052;-76
2023/07/21 05:34:43;;;;;;;7.00;4.10;;;;;;;;;;5059581;28;20543;-89
2023/07/21 05:37:11;;;;;;;8.18;3.70;;;;;;;;;;5059434;28;20080;-87
2023/07/21 05:39:39;;;;;;;7.80;4.63;;;;;;;;;;5055941;28;20095;-78
2023/07/21 05:42:06;;;;;;;9.15;3.72;;;;;;;;;;5062412;28;20040;-83
2023/07/21 05:44:33;;;;;;;6.25;3.38;;;;;;;;;;5056661;28;20098;-84
2023/07/21 05:46:59;;;;;;;5.30;3.45;;;;;;;;;;5069265;28;20609;-85
2023/07/21 05:49:25;;;;;;;7.80;3.17;;;;;;;;;;5039072;28;20090;-85
2023/07/21 05:51:51;;;;;;;8.40;2.95;;;;;;;;;;5057771;28;20131;-83
2023/07/21 05:54:17;;;;;;;10.57;2.88;;;;;;;;;;5057834;28;20044;-85
2023/07/21 05:56:43;;;;;;;9.32;2.70;;;;;;;;;;5057530;28;20048;-88
2023/07/21 05:59:09;;;;;;;4.05;2.17;;;;;;;;;;5058175;28;20043;-84
2023/07/21 06:01:36;;;;;;;5.97;2.40;;;;;;;;;;5053092;28;20040;-78
2023/07/21 06:04:03;;;;;;;5.80;2.40;;;;;;;;;;5060723;28;20114;-82
2023/07/21 06:06:29;;;;;;;5.97;2.30;;;;;;;;;;5056757;28;20037;-89
2023/07/21 06:08:55;;;;;;;7.25;2.10;;;;;;;;;;5057566;28;20048;-85
2023/07/21 06:11:23;;;;;;;3.45;1.95;;;;;;;;;;5039876;28;20057;-77
2023/07/21 06:13:49;;;;;;;4.35;2.00;;;;;;;;;;5056810;28;20091;-87
2023/07/21 06:16:16;;;;;;;7.78;2.30;;;;;;;;;;5055222;28;20113;-86
2023/07/21 06:18:42;;;;;;;6.57;2.28;;;;;;;;;;5058651;28;20478;-79
2023/07/21 06:21:11;;;;;;;4.05;2.10;;;;;;;;;;5060672;28;20147;-89
2023/07/21 06:23:38;;;;;;;8.90;2.17;;;;;;;;;;5065154;28;20049;-80
2023/07/21 06:26:04;;;;;;;8.13;2.30;;;;;;;;;;5059103;28;20044;-84
2023/07/21 06:28:30;;;;;;;4.22;2.30;;;;;;;;;;5042319;28;20095;-89
2023/07/21 06:30:56;;;;;;;5.60;2.00;;;;;;;;;;5059567;28;20494;-91
2023/07/21 06:33:22;;;;;;;6.47;2.20;;;;;;;;;;5055372;28;20056;-86
2023/07/21 06:35:50;;;;;;;5.35;2.25;;;;;;;;;;5062334;28;20097;-91
2023/07/21 06:38:16;;;;;;;6.68;2.20;;;;;;;;;;5058805;28;20041;-87
2023/07/21 06:40:42;;;;;;;4.65;2.00;;;;;;;;;;5058908;28;20052;-87
2023/07/21 06:43:08;;;;;;;6.05;2.30;;;;;;;;;;5062500;28;20503;-89
2023/07/21 06:45:39;;;;;;;7.85;2.00;;;;;;;;;;5053989;28;20045;-89
2023/07/21 06:48:06;;;;;;;3.40;1.98;;;;;;;;;;5045566;28;20041;-90
2023/07/21 06:50:32;;;;;;;6.50;1.70;;;;;;;;;;5055692;28;20040;-90
2023/07/21 06:53:04;;;;;;;4.35;1.80;;;;;;;;;;5067815;28;20028;-95
2023/07/21 06:55:30;;;;;;;4.30;1.77;;;;;;;;;;5045786;28;20049;-92
2023/07/21 06:57:56;;;;;;;3.35;1.67;;;;;;;;;;5053878;28;20029;-94
2023/07/21 07:00:23;;;;;;;3.63;1.58;;;;;;;;;;5037746;28;20049;-95
2023/07/21 07:02:49;;;;;;;4.20;1.80;;;;;;;;;;5033298;28;20117;-77
2023/07/21 07:05:18;;;;;;;2.60;1.40;;;;;;;;;;5056364;28;20215;-86
2023/07/21 07:07:45;;;;;;;1.60;1.05;;;;;;;;;;5053290;28;20040;-77
2023/07/21 07:10:11;;;;;;;2.75;0.90;;;;;;;;;;5048989;28;20051;-77
2023/07/21 07:12:38;;;;;;;2.30;1.10;;;;;;;;;;5044640;28;20048;-79
2023/07/21 07:15:05;;;;;;;2.50;1.23;;;;;;;;;;5052864;28;20444;-81
2023/07/21 07:17:31;;;;;;;3.00;1.27;;;;;;;;;;5051009;28;21026;-79
2023/07/21 07:19:57;;;;;;;1.20;0.80;;;;;;;;;;5042219;28;20478;-78
2023/07/21 07:22:23;;;;;;;1.05;0.85;;;;;;;;;;5040924;28;20087;-74
2023/07/21 07:24:49;;;;;;;2.40;1.10;;;;;;;;;;5041933;28;20056;-76
2023/07/21 07:27:15;;;;;;;1.95;1.20;;;;;;;;;;5045629;28;20480;-72
2023/07/21 07:29:41;;;;;;;2.85;1.10;;;;;;;;;;5046919;28;20140;-75
2023/07/21 07:32:08;;;;;;;4.78;1.75;;;;;;;;;;5043973;28;20574;-77
2023/07/21 07:34:34;;;;;;;2.47;0.95;;;;;;;;;;5043026;28;20547;-77
2023/07/21 07:37:00;;;;;;;1.60;0.95;;;;;;;;;;5055148;28;20086;-76
2023/07/21 07:39:26;;;;;;;2.03;0.95;;;;;;;;;;5049562;28;20048;-72
2023/07/21 07:41:52;;;;;;;3.05;1.00;;;;;;;;;;5049048;28;20770;-75
2023/07/21 07:44:18;;;;;;;1.90;0.88;;;;;;;;;;5048524;28;20037;-74
2023/07/21 07:46:44;;;;;;;2.40;0.90;;;;;;;;;;5052809;28;20064;-77
2023/07/21 07:49:10;;;;;;;1.85;1.00;;;;;;;;;;5042213;28;21010;-73
2023/07/21 07:51:38;;;;;;;2.28;1.23;;;;;;;;;;5049957;28;20044;-74
2023/07/21 07:54:05;;;;;;;1.80;0.90;;;;;;;;;;5049883;28;20048;-80
2023/07/21 07:56:31;;;;;;;2.88;1.00;;;;;;;;;;5043196;28;20056;-78
2023/07/21 07:58:57;;;;;;;1.92;0.90;;;;;;;;;;5050592;28;20044;-76
2023/07/21 08:01:23;;;;;;;2.72;1.27;;;;;;;;;;5048035;28;20624;-73
2023/07/21 08:03:50;;;;;;;5.32;1.20;;;;;;;;;;5044968;28;20058;-76
2023/07/21 08:06:17;;;;;;;2.35;0.90;;;;;;;;;;5045128;28;20044;-75
2023/07/21 08:08:43;;;;;;;2.17;1.10;;;;;;;;;;5048480;28;20044;-77
2023/07/21 08:11:09;;;;;;;2.67;1.05;;;;;;;;;;5049508;28;20083;-79
2023/07/21 08:13:35;;;;;;;2.80;1.00;;;;;;;;;;5044147;28;20128;-79
2023/07/21 08:16:04;;;;;;;1.58;0.82;;;;;;;;;;5052026;28;20139;-74
2023/07/21 08:18:30;;;;;;;3.85;0.90;;;;;;;;;;5046198;28;20413;-78
2023/07/21 08:20:56;;;;;;;1.00;0.80;;;;;;;;;;5052392;28;20043;-78
2023/07/21 08:23:22;;;;;;;1.65;1.00;;;;;;;;;;5044354;28;20048;-77
2023/07/21 08:25:48;;;;;;;5.93;1.33;;;;;;;;;;5047839;28;20139;-74
2023/07/21 08:28:14;;;;;;;2.60;1.02;;;;;;;;;;5034516;28;20044;-75
2023/07/21 08:30:40;;;;;;;1.80;0.80;;;;;;;;;;5027231;28;20101;-79
2023/07/21 08:33:06;;;;;;;1.70;1.02;;;;;;;;;;5044524;28;20681;-77
2023/07/21 08:35:33;;;;;;;1.30;0.80;;;;;;;;;;5044930;28;20830;-73
2023/07/21 08:37:59;;;;;;;2.92;1.00;;;;;;;;;;5047062;28;20137;-74
2023/07/21 08:40:25;;;;;;;2.10;0.90;;;;;;;;;;5048773;28;20045;-89
2023/07/21 08:42:51;;;;;;;3.22;1.00;;;;;;;;;;5050821;28;20048;-93
2023/07/21 08:45:20;;;;;;;2.33;0.95;;;;;;;;;;5046150;28;20041;-92
2023/07/21 08:47:46;;;;;;;4.18;1.33;;;;;;;;;;5047709;28;20049;-82
2023/07/21 08:50:17;;;;;;;3.42;1.13;;;;;;;;;;5052239;28;20531;-84
2023/07/21 08:52:43;;;;;;;1.75;1.00;;;;;;;;;;5046922;28;20041;-87
2023/07/21 08:55:09;;;;;;;5.57;0.95;;;;;;;;;;5055845;28;20047;-76
2023/07/21 08:57:35;;;;;;;4.90;0.98;;;;;;;;;;5056146;28;20571;-80
2023/07/21 09:00:03;;;;;;;3.70;1.00;;;;;;;;;;5059993;28;20091;-88
2023/07/21 09:02:38;;;;;;;6.00;1.30;;;;;;;;;;5060999;28;20052;-91
2023/07/21 09:05:05;;;;;;;5.03;1.20;;;;;;;;;;5056204;28;20113;-81
2023/07/21 09:07:31;;;;;;;3.92;1.05;;;;;;;;;;5065279;28;20135;-78
2023/07/21 09:09:57;;;;;;;6.07;2.05;;;;;;;;;;5054729;28;20112;-85
2023/07/21 09:12:24;;;;;;;8.32;1.50;;;;;;;;;;5059697;28;20084;-85
2023/07/21 09:14:50;;;;;;;3.22;1.27;;;;;;;;;;5055030;28;20742;-79
2023/07/21 09:17:16;;;;;;;2.65;0.75;;;;;;;;;;5036855;28;20060;-84
2023/07/21 09:19:44;;;;;;;1.67;0.90;;;;;;;;;;5057086;28;20074;-89
2023/07/21 09:22:11;;;;;;;2.42;1.10;;;;;;;;;;5045999;28;20051;-82
2023/07/21 09:24:47;;;;;;;4.13;1.00;;;;;;;;;;5053783;28;20053;-82
2023/07/21 09:27:14;;;;;;;1.23;0.90;;;;;;;;;;5024248;28;20501;-80
2023/07/21 09:29:41;;;;;;;2.55;1.10;;;;;;;;;;5036753;28;20521;-80
2023/07/21 09:32:14;;;;;;;1.80;1.10;;;;;;;;;;5024479;28;20568;-78
2023/07/21 09:34:54;;;;;;;1.98;1.05;;;;;;;;;;5033836;28;20044;-77
2023/07/21 09:37:20;;;;;;;1.08;0.90;;;;;;;;;;5018959;28;20132;-76
2023/07/21 09:39:52;;;;;;;1.55;0.93;;;;;;;;;;5033693;28;20045;-80
2023/07/21 09:42:18;;;;;;;1.30;0.98;;;;;;;;;;5030491;28;20132;-77
2023/07/21 09:44:44;;;;;;;1.52;0.90;;;;;;;;;;5014192;28;20047;-84
2023/07/21 09:47:10;;;;;;;1.73;0.90;;;;;;;;;;5033729;28;20756;-79
2023/07/21 09:49:36;;;;;;;2.95;0.90;;;;;;;;;;5020816;28;20045;-79
2023/07/21 09:52:02;;;;;;;3.38;1.15;;;;;;;;;;5030149;28;20051;-81
2023/07/21 09:54:29;;;;;;;2.20;1.10;;;;;;;;;;5021948;28;20571;-82
2023/07/21 09:56:56;;;;;;;1.73;1.03;;;;;;;;;;5031309;28;20098;-82
2023/07/21 09:59:22;;;;;;;1.73;0.80;;;;;;;;;;5023974;28;20345;-80
2023/07/21 10:01:48;;;;;;;1.25;0.90;;;;;;;;;;5024800;28;20045;-84
2023/07/21 10:04:15;;;;;;;3.10;0.90;;;;;;;;;;5024706;28;20036;-82
2023/07/21 10:06:41;;;;;;;2.15;1.00;;;;;;;;;;5031351;28;20356;-89
2023/07/21 10:09:09;;;;;;;2.70;0.90;;;;;;;;;;5014570;28;20053;-81
2023/07/21 10:11:35;;;;;;;3.03;0.90;;;;;;;;;;5028724;28;20049;-84
2023/07/21 10:14:01;;;;;;;1.83;0.85;;;;;;;;;;5036277;28;20564;-83
2023/07/21 10:16:30;;;;;;;3.67;1.00;;;;;;;;;;5025121;28;20050;-85
2023/07/21 10:19:22;;;;;;;5.63;1.10;;;;;;;;;;5036403;28;20564;-80
2023/07/21 10:21:53;;;;;;;2.17;0.88;;;;;;;;;;5023674;28;20064;-78
2023/07/21 10:24:23;;;;;;;3.10;1.00;;;;;;;;;;5037195;28;20503;-86
2023/07/21 10:26:53;;;;;;;1.88;1.00;;;;;;;;;;4966432;28;2250089;-83
2023/07/21 10:29:19;;;;;;;1.27;0.93;;;;;;;;;;5038616;28;20064;-82
2023/07/21 10:31:52;;;;;;;2.90;1.05;;;;;;;;;;5047599;28;20300;-76
2023/07/21 10:34:18;;;;;;;0.93;0.82;;;;;;;;;;5049884;28;20052;-79
2023/07/21 10:36:53;;;;;;;1.95;1.00;;;;;;;;;;5048189;28;20048;-75
2023/07/21 10:39:22;;;;;;;1.98;1.00;;;;;;;;;;5051076;28;20206;-86
2023/07/21 10:41:48;;;;;;;3.80;1.08;;;;;;;;;;5056659;28;20036;-87
2023/07/21 10:44:15;;;;;;;3.08;1.10;;;;;;;;;;5052388;28;20083;-85
2023/07/21 10:46:42;;;;;;;2.22;1.42;;;;;;;;;;5051263;28;20036;-74
2023/07/21 10:49:09;;;;;;;1.73;1.00;;;;;;;;;;5051604;28;20131;-88
2023/07/21 10:51:35;;;;;;;2.60;1.00;;;;;;;;;;5055851;28;20127;-82
2023/07/21 10:54:01;;;;;;;6.38;1.35;;;;;;;;;;5035494;28;20410;-83
2023/07/21 10:56:27;;;;;;;2.47;0.90;;;;;;;;;;5056627;28;20051;-83
2023/07/21 10:58:53;;;;;;;1.60;1.13;;;;;;;;;;5046352;28;20389;-79
2023/07/21 11:01:20;;;;;;;2.22;0.90;;;;;;;;;;5050318;28;20045;-84
2023/07/21 11:03:48;;;;;;;2.17;1.58;;;;;;;;;;5054627;28;20072;-86
2023/07/21 11:06:13;;;;;;;1.80;1.15;;;;;;;;;;5045430;28;20551;-85
2023/07/21 11:08:39;;;;;;;3.47;1.25;;;;;;;;;;5046741;28;20036;-87
2023/07/21 11:11:07;;;;;;;2.50;1.20;;;;;;;;;;5046002;28;20160;-82
2023/07/21 11:13:33;;;;;;;2.27;1.30;;;;;;;;;;5053040;28;20123;-76
2023/07/21 11:16:02;;;;;;;2.50;1.33;;;;;;;;;;5035180;28;20036;-81
2023/07/21 11:18:28;;;;;;;2.20;1.27;;;;;;;;;;5051553;28;20504;-82
2023/07/21 11:20:55;;;;;;;3.47;1.38;;;;;;;;;;5050606;28;20049;-76
2023/07/21 11:23:22;;;;;;;3.53;1.35;;;;;;;;;;5048483;28;20047;-74
2023/07/21 11:26:13;;;;;;;2.53;1.38;;;;;;;;;;5046098;28;20056;-80
2023/07/21 11:29:04;;;;;;;2.90;1.20;;;;;;;;;;5030996;28;20045;-79
2023/07/21 11:31:32;;;;;;;1.95;1.20;;;;;;;;;;5045811;28;20072;-76
2023/07/21 11:33:58;;;;;;;2.42;1.20;;;;;;;;;;5045298;28;20550;-82
2023/07/21 11:36:25;;;;;;;3.20;1.35;;;;;;;;;;5033769;28;20041;-78
2023/07/21 11:39:02;;;;;;;2.25;1.38;;;;;;;;;;5033067;28;20040;-85
2023/07/21 11:41:48;;;;;;;2.33;1.20;;;;;;;;;;5059008;28;20052;-81
2023/07/21 11:44:17;;;;;;;4.35;1.38;;;;;;;;;;5051761;28;20044;-88
2023/07/21 11:46:54;;;;;;;4.55;1.25;;;;;;;;;;5059222;28;20071;-76
2023/07/21 11:49:21;;;;;;;2.00;1.20;;;;;;;;;;5049335;28;20033;-85
2023/07/21 11:51:49;;;;;;;1.88;1.50;;;;;;;;;;5051733;28;20110;-82
2023/07/21 11:54:19;;;;;;;2.70;1.20;;;;;;;;;;5048886;28;20087;-74
2023/07/21 11:56:46;;;;;;;3.33;1.30;;;;;;;;;;5035137;28;20045;-76
2023/07/21 11:59:12;;;;;;;2.42;1.35;;;;;;;;;;5056842;28;20048;-76
2023/07/21 12:01:38;;;;;;;3.97;1.83;;;;;;;;;;5051471;28;20044;-80
2023/07/21 12:04:04;;;;;;;3.75;1.30;;;;;;;;;;5051485;28;20080;-75
2023/07/21 12:06:30;;;;;;;1.70;1.23;;;;;;;;;;5049567;28;20193;-81
2023/07/21 12:08:56;;;;;;;3.75;1.38;;;;;;;;;;5050069;28;20048;-75
2023/07/21 12:11:23;;;;;;;2.13;1.33;;;;;;;;;;5048176;28;21053;-75
2023/07/21 12:13:50;;;;;;;2.80;1.27;;;;;;;;;;5047387;28;20045;-76
2023/07/21 12:16:16;;;;;;;4.40;1.40;;;;;;;;;;5049592;28;20149;-81
2023/07/21 12:18:42;;;;;;;2.13;1.40;;;;;;;;;;5044186;28;20053;-79
2023/07/21 12:21:08;;;;;;;2.30;1.08;;;;;;;;;;5054640;28;20393;-81
2023/07/21 12:23:35;;;;;;;5.43;1.35;;;;;;;;;;5050357;28;20050;-77
2023/07/21 12:26:01;;;;;;;2.95;1.10;;;;;;;;;;5054509;28;20060;-86
2023/07/21 12:28:27;;;;;;;2.35;1.00;;;;;;;;;;5047457;28;20045;-82
2023/07/21 12:30:54;;;;;;;3.88;1.17;;;;;;;;;;5037033;28;20048;-80
2023/07/21 12:33:20;;;;;;;0.98;0.88;;;;;;;;;;5043592;28;20045;-78
2023/07/21 12:35:46;;;;;;;2.17;0.90;;;;;;;;;;5027654;28;20129;-82
2023/07/21 12:38:12;;;;;;;3.33;0.90;;;;;;;;;;5048527;28;20044;-86
2023/07/21 12:40:39;;;;;;;3.53;1.40;;;;;;;;;;5047015;28;20143;-87
2023/07/21 12:43:05;;;;;;;1.50;0.90;;;;;;;;;;5052580;28;20052;-90
2023/07/21 12:45:31;;;;;;;1.35;1.00;;;;;;;;;;5042141;28;20033;-85
2023/07/21 12:47:58;;;;;;;2.33;1.35;;;;;;;;;;5032605;28;20473;-78
2023/07/21 12:50:24;;;;;;;2.75;1.00;;;;;;;;;;5061682;28;20128;-86
2023/07/21 12:52:50;;;;;;;4.00;0.85;;;;;;;;;;5051192;28;20048;-89
2023/07/21 12:55:16;;;;;;;2.22;1.30;;;;;;;;;;5051060;28;20044;-85
2023/07/21 12:57:43;;;;;;;1.40;1.20;;;;;;;;;;5055189;28;20041;-87
2023/07/21 13:00:13;;;;;;;3.92;1.60;;;;;;;;;;5047904;28;20079;-88
2023/07/21 13:02:39;;;;;;;4.85;1.40;;;;;;;;;;5049281;28;20389;-85
2023/07/21 13:05:06;;;;;;;1.70;1.30;;;;;;;;;;5054303;28;20133;-77
2023/07/21 13:07:32;;;;;;;3.63;0.90;;;;;;;;;;5045879;28;20524;-87
2023/07/21 13:09:58;;;;;;;5.03;2.10;;;;;;;;;;5059463;28;20654;-81
2023/07/21 13:12:25;;;;;;;7.00;2.42;;;;;;;;;;5042046;28;20179;-86
2023/07/21 13:14:50;;;;;;;12.30;2.55;;;;;;;;;;5049249;28;20044;-82
2023/07/21 13:17:16;;;;;;;4.32;1.73;;;;;;;;;;5047382;28;20782;-84
2023/07/21 13:19:43;;;;;;;8.68;2.20;;;;;;;;;;5052566;28;20071;-91
2023/07/21 13:22:09;;;;;;;3.20;1.98;;;;;;;;;;5051956;28;20044;-90
2023/07/21 13:24:35;;;;;;;2.35;1.70;;;;;;;;;;5043641;28;20048;-88
2023/07/21 13:27:01;;;;;;;3.35;2.20;;;;;;;;;;5052553;28;20077;-83
2023/07/21 13:29:27;;;;;;;4.15;1.83;;;;;;;;;;5044581;28;20076;-82
2023/07/21 13:31:53;;;;;;;2.92;1.90;;;;;;;;;;5056233;28;20035;-83
2023/07/21 13:34:19;;;;;;;3.70;2.30;;;;;;;;;;5054173;28;20441;-84
2023/07/21 13:36:48;;;;;;;5.88;2.30;;;;;;;;;;5054219;28;20052;-94
2023/07/21 13:39:15;;;;;;;5.57;2.30;;;;;;;;;;5057220;28;20045;-93
2023/07/21 13:41:41;;;;;;;4.25;2.72;;;;;;;;;;5066394;28;20040;-92
2023/07/21 13:44:07;;;;;;;3.38;2.63;;;;;;;;;;5059720;28;20098;-87
2023/07/21 13:46:33;;;;;;;3.47;2.70;;;;;;;;;;5058701;28;21067;-93
2023/07/21 13:48:59;;;;;;;3.58;2.50;;;;;;;;;;5060878;28;20048;-80
2023/07/21 13:51:25;;;;;;;3.97;2.60;;;;;;;;;;5059369;28;20098;-87
2023/07/21 13:53:51;;;;;;;3.75;2.42;;;;;;;;;;5061125;28;20041;-86
2023/07/21 13:56:18;;;;;;;4.28;2.90;;;;;;;;;;5051684;28;20465;-84
2023/07/21 13:58:44;;;;;;;3.85;2.50;;;;;;;;;;5061813;28;20400;-80
2023/07/21 14:01:11;;;;;;;5.20;2.67;;;;;;;;;;5050608;28;20044;-88
2023/07/21 14:03:37;;;;;;;3.80;2.60;;;;;;;;;;5051663;28;20056;-89
2023/07/21 14:06:03;;;;;;;5.45;2.60;;;;;;;;;;5055012;28;20417;-87
2023/07/21 14:08:30;;;;;;;5.63;2.47;;;;;;;;;;5050638;28;20044;-85
2023/07/21 14:10:57;;;;;;;4.78;2.30;;;;;;;;;;5057141;28;20102;-81
2023/07/21 14:13:23;;;;;;;3.30;2.30;;;;;;;;;;5051615;28;20343;-90
2023/07/21 14:15:49;;;;;;;4.22;2.30;;;;;;;;;;5033935;28;20110;-84
2023/07/21 14:18:15;;;;;;;3.42;2.10;;;;;;;;;;5055210;28;20507;-86
2023/07/21 14:20:41;;;;;;;6.85;5.32;;;;;;;;;;5059978;28;20041;-91
2023/07/21 14:23:07;;;;;;;5.90;2.20;;;;;;;;;;5049063;28;20053;-87
2023/07/21 14:25:34;;;;;;;4.20;2.50;;;;;;;;;;5059521;28;20446;-91
2023/07/21 14:28:00;;;;;;;2.95;2.10;;;;;;;;;;5053857;28;20060;-85
2023/07/21 14:30:26;;;;;;;3.78;2.10;;;;;;;;;;5038313;28;20465;-88
2023/07/21 14:32:52;;;;;;;3.60;1.85;;;;;;;;;;5050300;28;20544;-86
2023/07/21 14:35:20;;;;;;;2.85;1.98;;;;;;;;;;5058282;28;20496;-89
2023/07/21 14:37:46;;;;;;;3.28;2.00;;;;;;;;;;5058270;28;20076;-90
2023/07/21 14:40:14;;;;;;;2.20;2.00;;;;;;;;;;5030149;28;20032;-77
2023/07/21 14:42:40;;;;;;;3.83;2.38;;;;;;;;;;5058233;28;20405;-86